• Join FlightAware (Why Join?)
  • Login
  • US Flag 
12:41AM EDT


 

Airport Tracker/Info


-or-


 

Live Flight TrackerFlight Track Log ✈ ADR704 ✈ 15-Oct-2013 ✈ LJLJ / LJU - LATI / TIA

Flight Track Log - Related Links

Times and Time Zones

All times are in EDT time to prevent confusion due to time zone crossing. See the ADR704 flight status page for this flight to view local times or setup timezone preferences in your user account.

Time Position Orientation Groundspeed Altitude Reporting Facility
EDT Latitude Longitude Course Direction KTS MPH feet Rate Location/Type
07:50AM 45.8322 14.9303 140° Southeast  Level Estimated
07:51AM 45.7537 15.0241 140° Southeast  Level Estimated
07:52AM 45.6751 15.1175 140° Southeast  Level Estimated
07:53AM 45.5964 15.2108 140° Southeast  Level Estimated
07:54AM 45.5177 15.3037 140° Southeast  Level Estimated
07:55AM 45.4389 15.3964 140° Southeast  Level Estimated
07:56AM 45.3600 15.4889 141° Southeast  Level Estimated
07:57AM 45.2810 15.5810 141° Southeast  Level Estimated
07:58AM 45.2019 15.6730 141° Southeast  Level Estimated
07:59AM 45.1228 15.7646 141° Southeast  Level Estimated
08:00AM 45.0436 15.8561 141° Southeast  Level Estimated
08:01AM 44.9643 15.9472 141° Southeast  Level Estimated
08:02AM 44.8850 16.0381 141° Southeast  Level Estimated
08:03AM 44.8056 16.1288 141° Southeast  Level Estimated
08:04AM 44.7261 16.2192 141° Southeast  Level Estimated
08:05AM 44.6465 16.3094 141° Southeast  Level Estimated
08:06AM 44.5669 16.3993 141° Southeast  Level Estimated
08:07AM 44.4872 16.4890 141° Southeast  Level Estimated
08:08AM 44.4074 16.5784 141° Southeast  Level Estimated
08:09AM 44.3276 16.6676 141° Southeast  Level Estimated
08:10AM 44.2477 16.7565 141° Southeast  Level Estimated
08:11AM 44.1677 16.8452 141° Southeast  Level Estimated
08:12AM 44.0877 16.9337 142° Southeast  Level Estimated
08:13AM 44.0076 17.0219 142° Southeast  Level Estimated
08:14AM 43.9274 17.1099 142° Southeast  Level Estimated
08:15AM 43.8471 17.1976 142° Southeast  Level Estimated
08:16AM 43.7668 17.2851 142° Southeast  Level Estimated
08:17AM 43.6865 17.3724 142° Southeast  Level Estimated
08:18AM 43.6060 17.4594 142° Southeast  Level Estimated
08:19AM 43.5255 17.5462 142° Southeast  Level Estimated
08:20AM 43.4449 17.6328 142° Southeast  Level Estimated
08:21AM 43.3643 17.7191 142° Southeast  Level Estimated
08:22AM 43.2836 17.8053 142° Southeast  Level Estimated
08:23AM 43.2028 17.8911 142° Southeast  Level Estimated
08:24AM 43.1220 17.9768 142° Southeast  Level Estimated
08:25AM 43.0411 18.0622 142° Southeast  Level Estimated
08:26AM 42.9601 18.1474 142° Southeast  Level Estimated
08:27AM 42.8791 18.2324 142° Southeast  Level Estimated
08:28AM 42.7980 18.3172 143° Southeast  Level Estimated
08:29AM 42.7169 18.4017 143° Southeast  Level Estimated
08:30AM 42.6356 18.4860 143° Southeast  Level Estimated
08:31AM 42.5544 18.5701 143° Southeast  Level Estimated
08:32AM 42.4730 18.6540 143° Southeast  Level Estimated
08:33AM 42.3916 18.7377 143° Southeast  Level Estimated
08:34AM 42.3102 18.8211 143° Southeast  Level Estimated
08:35AM 42.2286 18.9044 143° Southeast  Level Estimated
08:36AM 42.1471 18.9874 143° Southeast  Level Estimated
08:37AM 42.0654 19.0702 143° Southeast  Level Estimated
08:38AM 41.9837 19.1528 143° Southeast  Level Estimated
08:39AM 41.9020 19.2351 143° Southeast  Level Estimated
08:40AM 41.8202 19.3173 143° Southeast  Level Estimated
08:41AM 41.7383 19.3993 143° Southeast  Level Estimated
08:42AM 41.6564 19.4810 143° Southeast  Level Estimated
08:43AM 41.5744 19.5626 143° Southeast  Level Estimated
08:44AM 41.4923 19.6439 143° Southeast  Level Estimated
08:45AM 41.4147 19.7206 143° Southeast  Level Estimated
08:46AM 41.4147 19.7206 21° North  Level Estimated
08:47AM 41.4147 19.7206 21° North  Level Estimated
08:48AM 41.4147 19.7206 21° North  Level Estimated
08:49AM 41.4147 19.7206 21° North  Level Estimated